Terminal Aerodrome Forecast
Issued by NWS

Home | Current Version | Previous Version | Graphics & Text | Print | Product List | Glossary On
Versions: 1 2 3 4 5 6 7 8 9 10 11 12 13
251
FTUS43 KFGF 151401 AAB
TAFBJI
TAF AMD
KBJI 151401Z 1514/1612 VRB04KT P6SM FEW110
      TEMPO 1514/1515 1/2SM FZFG BKN002
     FM151700 24007KT P6SM BKN080
     FM160100 27006KT P6SM SCT100=

USA.gov is the U.S. government's official web portal to all federal, state and local government web resources and services.